createdAt,value
2016-12-11T00:00:15.425Z,81.37
2016-12-11T00:01:24.914Z,80.99
2016-12-11T00:03:06.630Z,81.28
2016-12-11T00:04:16.481Z,81.56
2016-12-11T00:05:25.677Z,81.56
2016-12-11T00:06:35.486Z,81.37
2016-12-11T00:07:45.312Z,81.09
2016-12-11T00:08:54.499Z,81.85
2016-12-11T00:10:03.984Z,81.95
2016-12-11T00:11:13.223Z,82.14
2016-12-11T00:12:22.718Z,81.76
2016-12-11T00:13:32.564Z,81.85
2016-12-11T00:14:42.371Z,81.85
2016-12-11T00:15:51.882Z,81.66
2016-12-11T00:17:01.059Z,82.14
2016-12-11T00:18:10.839Z,81.62
2016-12-11T00:19:20.318Z,82.42
2016-12-11T00:20:29.803Z,82.48
2016-12-11T00:21:39.710Z,82.51
2016-12-11T00:22:49.200Z,82.48
2016-12-11T00:23:58.674Z,82.67
2016-12-11T00:25:08.527Z,82.38
2016-12-11T00:26:18.325Z,82.95
2016-12-11T00:27:28.129Z,82.67
2016-12-11T00:28:37.920Z,82.67
2016-12-11T00:29:47.693Z,82.48
2016-12-11T00:30:57.475Z,82.86
2016-12-11T00:32:07.263Z,82.95
2016-12-11T00:33:16.779Z,83.23
2016-12-11T00:34:26.259Z,83.04
2016-12-11T00:35:35.429Z,83.23
2016-12-11T00:36:45.291Z,83.14
2016-12-11T00:37:55.074Z,83.23
2016-12-11T00:39:04.922Z,83.23
2016-12-11T00:40:14.763Z,83.14
2016-12-11T00:41:24.572Z,83.33
2016-12-11T00:42:34.123Z,83.33
2016-12-11T00:43:43.910Z,83.23
2016-12-11T00:44:53.726Z,83.42
2016-12-11T00:46:03.231Z,83.33
2016-12-11T00:47:13.035Z,83.42
2016-12-11T00:48:22.523Z,83.42
2016-12-11T00:49:32.392Z,83.33
2016-12-11T00:50:41.898Z,83.23
2016-12-11T00:51:51.720Z,83.33
2016-12-11T00:53:01.602Z,84
2016-12-11T00:54:11.083Z,83.9
2016-12-11T00:55:20.873Z,84.09
2016-12-11T00:56:30.671Z,83.9
2016-12-11T00:57:40.227Z,83.9
2016-12-11T00:58:50.066Z,83.81
2016-12-11T00:59:59.555Z,83.81
2016-12-11T01:01:09.406Z,83.9
2016-12-11T01:02:19.234Z,83.9
2016-12-11T01:03:29.065Z,84.09
2016-12-11T01:04:39.030Z,84.56
2016-12-11T01:05:48.513Z,84.33
2016-12-11T01:06:58.340Z,84.09
2016-12-11T01:08:08.138Z,83.62
2016-12-11T01:09:17.941Z,83.52
2016-12-11T01:10:27.418Z,84.19
2016-12-11T01:11:36.899Z,84.09
2016-12-11T01:12:46.378Z,84.19
2016-12-11T01:13:56.199Z,83.62
2016-12-11T01:15:05.708Z,84.47
2016-12-11T01:16:14.871Z,84.28
2016-12-11T01:17:24.655Z,84.09
2016-12-11T01:18:34.445Z,84.19
2016-12-11T01:19:44.266Z,84.47
2016-12-11T01:20:54.039Z,84.56
2016-12-11T01:22:03.522Z,84.38
2016-12-11T01:23:13.374Z,84.47
2016-12-11T01:24:22.921Z,84.56
2016-12-11T01:25:32.718Z,84.47
2016-12-11T01:26:42.242Z,84.47
2016-12-11T01:27:52.046Z,84.76
2016-12-11T01:29:01.967Z,84.95
2016-12-11T01:30:11.464Z,84.76
2016-12-11T01:31:20.952Z,85.14
2016-12-11T01:32:30.471Z,84.95
2016-12-11T01:33:40.300Z,84.95
2016-12-11T01:34:50.083Z,84.95
2016-12-11T01:36:00.127Z,84.85
2016-12-11T01:37:09.917Z,84.66
2016-12-11T01:38:19.110Z,85.71
2016-12-11T01:39:28.887Z,85.42
2016-12-11T01:40:38.880Z,85.42
2016-12-11T01:41:48.687Z,85.42
2016-12-11T01:42:58.387Z,85.14
2016-12-11T01:44:07.920Z,85.42
2016-12-11T01:45:17.892Z,85.71
2016-12-11T01:46:27.372Z,85.9
2016-12-11T01:48:08.690Z,85.71
2016-12-11T01:49:18.193Z,85.52
2016-12-11T01:50:27.051Z,85.71
2016-12-11T01:51:36.998Z,85.42
2016-12-11T01:52:46.795Z,85.42
2016-12-11T01:53:56.593Z,85.8
2016-12-11T01:55:05.758Z,85.52
2016-12-11T01:56:15.633Z,85.33
2016-12-11T01:57:25.138Z,85.9
2016-12-11T01:58:34.915Z,85.61
2016-12-11T01:59:44.431Z,85.99
2016-12-11T02:00:54.229Z,85.99
2016-12-11T02:02:04.107Z,85.99
2016-12-11T02:03:13.592Z,85.99
2016-12-11T02:04:23.395Z,85.8
2016-12-11T02:05:32.882Z,85.99
2016-12-11T02:06:42.706Z,86.09
2016-12-11T02:07:52.207Z,85.9
2016-12-11T02:09:02.012Z,85.9
2016-12-11T02:10:11.475Z,86.28
2016-12-11T02:11:21.393Z,86.09
2016-12-11T02:12:31.213Z,85.99
2016-12-11T02:13:40.992Z,86.09
2016-12-11T02:14:50.785Z,86.09
2016-12-11T02:16:00.557Z,86.09
2016-12-11T02:17:10.041Z,86.09
2016-12-11T02:18:19.585Z,86.38
2016-12-11T02:19:29.397Z,86.28
2016-12-11T02:20:38.601Z,86.76
2016-12-11T02:21:48.111Z,86.76
2016-12-11T02:22:57.911Z,86.57
2016-12-11T02:24:07.512Z,86.57
2016-12-11T02:25:17.295Z,86.47
2016-12-11T02:26:27.063Z,86.47
2016-12-11T02:27:36.869Z,86.47
2016-12-11T02:28:46.375Z,86.38
2016-12-11T02:29:56.266Z,86.85
2016-12-11T02:31:05.735Z,86.28
2016-12-11T02:32:15.396Z,86.85
2016-12-11T02:33:25.194Z,86.85
2016-12-11T02:34:34.362Z,86.94
2016-12-11T02:35:43.529Z,87.13
2016-12-11T02:36:53.350Z,87.23
2016-12-11T02:38:03.131Z,86.8
2016-12-11T02:39:12.611Z,86.8
2016-12-11T02:40:22.400Z,87.28
2016-12-11T02:41:32.287Z,87.23
2016-12-11T02:42:42.114Z,87.32
2016-12-11T02:43:51.624Z,87.13
2016-12-11T02:45:01.470Z,87.42
2016-12-11T02:46:10.941Z,87.23
2016-12-11T02:47:20.761Z,87.32
2016-12-11T02:48:30.221Z,87.42
2016-12-11T02:49:40.030Z,87.42
2016-12-11T02:50:49.905Z,86.99
2016-12-11T02:51:59.766Z,86.99
2016-12-11T02:53:09.302Z,87.04
2016-12-11T02:54:19.101Z,87.13
2016-12-11T02:55:28.902Z,87.42
2016-12-11T02:56:38.378Z,87.23
2016-12-11T02:57:47.859Z,87.61
2016-12-11T02:58:57.686Z,87.38
2016-12-11T03:00:07.235Z,87.61
2016-12-11T03:01:17.049Z,87.61
2016-12-11T03:02:26.827Z,87.8
2016-12-11T03:03:36.634Z,87.52
2016-12-11T03:04:46.249Z,87.9
2016-12-11T03:05:56.032Z,87.95
2016-12-11T03:07:05.839Z,87.76
2016-12-11T03:08:15.350Z,87.66
2016-12-11T03:09:24.865Z,87.76
2016-12-11T03:10:34.670Z,87.99
2016-12-11T03:11:43.823Z,87.8
2016-12-11T03:12:53.617Z,87.9
2016-12-11T03:14:03.399Z,87.9
2016-12-11T03:15:13.168Z,87.71
2016-12-11T03:16:22.649Z,87.8
2016-12-11T03:17:32.442Z,87.9
2016-12-11T03:18:42.247Z,87.61
2016-12-11T03:19:52.078Z,87.66
2016-12-11T03:21:01.249Z,87.66
2016-12-11T03:22:10.730Z,87.71
2016-12-11T03:23:20.509Z,87.71
2016-12-11T03:24:30.296Z,87.71
2016-12-11T03:25:40.100Z,87.71
2016-12-11T03:26:49.868Z,88.56
2016-12-11T03:27:59.344Z,88.52
2016-12-11T03:29:09.157Z,88.52
2016-12-11T03:30:18.939Z,88.46
2016-12-11T03:31:28.815Z,88.56
2016-12-11T03:32:38.632Z,88.52
2016-12-11T03:33:47.817Z,88.37
2016-12-11T03:34:57.643Z,88.37
2016-12-11T03:36:07.448Z,88.28
2016-12-11T03:37:17.219Z,88.28
2016-12-11T03:38:27.026Z,88.28
2016-12-11T03:39:36.805Z,88.28
2016-12-11T03:40:46.611Z,88.28
2016-12-11T03:41:56.420Z,88.28
2016-12-11T03:43:05.909Z,88.37
2016-12-11T03:44:15.806Z,88.28
2016-12-11T03:45:25.614Z,88.18
2016-12-11T03:46:35.169Z,88.37
2016-12-11T03:47:44.882Z,88.46
2016-12-11T03:48:54.375Z,88.37
2016-12-11T03:50:04.192Z,88.37
2016-12-11T03:51:13.698Z,88.09
2016-12-11T03:52:23.467Z,88.56
2016-12-11T03:53:32.960Z,88.56
2016-12-11T03:54:42.446Z,88.66
2016-12-11T03:55:51.906Z,88.46
2016-12-11T03:57:01.412Z,88.37
2016-12-11T03:58:10.910Z,88.66
2016-12-11T03:59:20.716Z,88.46
2016-12-11T04:00:30.494Z,88.37
2016-12-11T04:01:40.073Z,88.37
2016-12-11T04:02:49.338Z,88.28
2016-12-11T04:03:59.178Z,88.66
2016-12-11T04:05:08.676Z,88.28
2016-12-11T04:06:17.883Z,88.37
2016-12-11T04:07:27.696Z,88.46
2016-12-11T04:08:37.475Z,88.75
2016-12-11T04:09:47.255Z,88.28
2016-12-11T04:10:57.035Z,88.66
2016-12-11T04:12:06.649Z,88.46
2016-12-11T04:13:16.428Z,88.46
2016-12-11T04:14:26.196Z,88.18
2016-12-11T04:15:35.995Z,88.28
2016-12-11T04:16:45.644Z,88.56
2016-12-11T04:17:54.864Z,87.99
2016-12-11T04:19:04.679Z,88.09
2016-12-11T04:20:13.844Z,87.52
2016-12-11T04:21:23.322Z,87.8
2016-12-11T04:22:33.165Z,87.8
2016-12-11T04:23:42.027Z,87.8
2016-12-11T04:24:51.530Z,87.9
2016-12-11T04:26:01.330Z,87.9
2016-12-11T04:27:11.237Z,87.13
2016-12-11T04:28:21.046Z,87.42
2016-12-11T04:29:30.551Z,87.23
2016-12-11T04:30:40.039Z,87.42
2016-12-11T04:31:49.213Z,87.52
2016-12-11T04:32:59.040Z,87.52
2016-12-11T04:34:08.580Z,87.42
2016-12-11T04:35:17.784Z,87.32
2016-12-11T04:36:27.262Z,87.42
2016-12-11T04:37:36.742Z,87.23
2016-12-11T04:38:46.567Z,87.71
2016-12-11T04:39:56.087Z,87.23
2016-12-11T04:41:05.915Z,87.23
2016-12-11T04:42:15.857Z,87.71
2016-12-11T04:43:25.751Z,87.8
2016-12-11T04:44:35.244Z,87.9
2016-12-11T04:45:45.025Z,87.8
2016-12-11T04:46:55.047Z,87.8
2016-12-11T04:48:04.525Z,87.8
2016-12-11T04:49:13.721Z,87.61
2016-12-11T04:50:23.230Z,87.52
2016-12-11T04:51:33.108Z,88.66
2016-12-11T04:52:43.010Z,87.9
2016-12-11T04:53:52.200Z,87.8
2016-12-11T04:55:02.037Z,87.61
2016-12-11T04:56:11.551Z,87.8
2016-12-11T04:57:21.031Z,87.9
2016-12-11T04:58:30.541Z,87.8
2016-12-11T04:59:40.037Z,87.9
2016-12-11T05:00:49.850Z,87.71
2016-12-11T05:01:59.699Z,88.18
2016-12-11T05:03:09.486Z,88.18
2016-12-11T05:04:19.322Z,88.46
2016-12-11T05:05:29.136Z,88.37
2016-12-11T05:06:38.608Z,88.37
2016-12-11T05:07:48.133Z,88.18
2016-12-11T05:08:57.643Z,88.28
2016-12-11T05:10:07.426Z,88.56
2016-12-11T05:11:16.927Z,88.09
2016-12-11T05:12:26.716Z,88.18
2016-12-11T05:13:35.570Z,88.37
2016-12-11T05:14:45.403Z,88.66
2016-12-11T05:15:55.192Z,88.56
2016-12-11T05:17:04.987Z,87.99
2016-12-11T05:18:14.784Z,89.04
2016-12-11T05:19:24.245Z,88.28
2016-12-11T05:20:33.756Z,89.04
2016-12-11T05:21:42.616Z,88.75
2016-12-11T05:22:52.140Z,88.75
2016-12-11T05:24:01.643Z,88.94
2016-12-11T05:25:11.112Z,89.04
2016-12-11T05:26:20.769Z,88.75
2016-12-11T05:27:30.552Z,89.23
2016-12-11T05:28:40.391Z,88.94
2016-12-11T05:29:49.867Z,88.85
2016-12-11T05:30:59.368Z,88.85
2016-12-11T05:32:08.855Z,89.14
2016-12-11T05:33:18.635Z,89.04
2016-12-11T05:34:28.122Z,88.75
2016-12-11T05:35:38.052Z,88.75
2016-12-11T05:36:47.550Z,88.75
2016-12-11T05:37:57.027Z,88.75
2016-12-11T05:39:06.190Z,89.32
2016-12-11T05:40:15.661Z,89.14
2016-12-11T05:41:24.835Z,89.42
2016-12-11T05:42:34.684Z,89.51
2016-12-11T05:43:44.208Z,89.42
2016-12-11T05:44:53.996Z,89.04
2016-12-11T05:46:03.491Z,89.04
2016-12-11T05:47:13.279Z,89.04
2016-12-11T05:48:22.773Z,89.04
2016-12-11T05:49:32.617Z,89.61
2016-12-11T05:50:41.776Z,89.23
2016-12-11T05:51:51.239Z,89.14
2016-12-11T05:53:00.722Z,89.23
2016-12-11T05:54:10.498Z,89.04
2016-12-11T05:55:20.313Z,88.75
2016-12-11T05:56:30.108Z,88.85
2016-12-11T05:57:39.621Z,88.85
2016-12-11T05:58:49.467Z,88.66
2016-12-11T05:59:58.965Z,88.56
2016-12-11T06:01:08.451Z,89.04
2016-12-11T06:02:17.922Z,88.75
2016-12-11T06:03:27.479Z,89.04
2016-12-11T06:04:37.051Z,89.04
2016-12-11T06:05:46.852Z,88.37
2016-12-11T06:06:56.645Z,88.75
2016-12-11T06:08:06.426Z,88.46
2016-12-11T06:09:16.234Z,88.37
2016-12-11T06:10:26.026Z,88.37
2016-12-11T06:11:35.490Z,88.37
2016-12-11T06:12:44.955Z,88.46
2016-12-11T06:13:54.439Z,88.46
2016-12-11T06:15:03.688Z,88.56
2016-12-11T06:16:13.515Z,88.37
2016-12-11T06:17:23.047Z,88.46
2016-12-11T06:18:32.849Z,88.56
2016-12-11T06:19:42.783Z,88.56
2016-12-11T06:20:52.577Z,88.56
2016-12-11T06:22:02.382Z,88.46
2016-12-11T06:23:11.541Z,88.28
2016-12-11T06:24:21.326Z,88.09
2016-12-11T06:25:31.134Z,88.09
2016-12-11T06:26:41.016Z,88.18
2016-12-11T06:27:50.802Z,88.18
2016-12-11T06:29:00.042Z,88.37
2016-12-11T06:30:09.513Z,88.32
2016-12-11T06:31:19.396Z,88.28
2016-12-11T06:32:29.171Z,88.09
2016-12-11T06:33:38.674Z,88.46
2016-12-11T06:34:47.861Z,88.18
2016-12-11T06:35:57.763Z,88.56
2016-12-11T06:37:07.553Z,88.32
2016-12-11T06:38:17.375Z,88.23
2016-12-11T06:39:27.186Z,88.32
2016-12-11T06:40:36.341Z,88.42
2016-12-11T06:41:45.508Z,88.32
2016-12-11T06:42:55.385Z,88.7
2016-12-11T06:44:04.848Z,88.23
2016-12-11T06:45:14.638Z,88.51
2016-12-11T06:46:24.415Z,88.51
2016-12-11T06:47:33.932Z,88.13
2016-12-11T06:48:43.729Z,88.51
2016-12-11T06:49:53.210Z,87.85
2016-12-11T06:51:02.370Z,87.85
2016-12-11T06:52:11.582Z,87.65
2016-12-11T06:53:21.360Z,87.75
2016-12-11T06:54:30.837Z,87.65
2016-12-11T06:55:40.379Z,87.85
2016-12-11T06:56:49.853Z,87.85
2016-12-11T06:57:59.022Z,88.04
2016-12-11T06:59:08.815Z,87.56
2016-12-11T07:00:18.641Z,87.46
2016-12-11T07:01:28.437Z,87.27
2016-12-11T07:02:38.219Z,87.27
2016-12-11T07:03:47.997Z,87.46
2016-12-11T07:04:57.790Z,87.85
2016-12-11T07:06:06.975Z,87.27
2016-12-11T07:07:16.483Z,87.56
2016-12-11T07:08:26.308Z,87.37
2016-12-11T07:09:35.869Z,87.37
2016-12-11T07:10:45.342Z,87.37
2016-12-11T07:11:54.823Z,87.37
2016-12-11T07:13:04.756Z,87.37
2016-12-11T07:14:13.922Z,87.46
2016-12-11T07:15:23.458Z,87.46
2016-12-11T07:16:33.239Z,87.75
2016-12-11T07:17:42.428Z,87.46
2016-12-11T07:18:51.916Z,87.46
2016-12-11T07:20:01.398Z,87.37
2016-12-11T07:21:11.194Z,87.46
2016-12-11T07:22:20.670Z,87.27
2016-12-11T07:23:30.464Z,87.46
2016-12-11T07:24:40.235Z,87.94
2016-12-11T07:25:49.825Z,87.85
2016-12-11T07:26:59.632Z,87.75
2016-12-11T07:28:09.118Z,87.94
2016-12-11T07:29:18.923Z,88.04
2016-12-11T07:30:28.115Z,87.85
2016-12-11T07:31:37.908Z,87.65
2016-12-11T07:32:47.696Z,87.85
2016-12-11T07:33:57.490Z,87.94
2016-12-11T07:35:07.266Z,87.85
2016-12-11T07:36:17.039Z,87.94
2016-12-11T07:37:26.849Z,88.51
2016-12-11T07:38:36.654Z,88.6
2016-12-11T07:39:46.216Z,88.6
2016-12-11T07:40:56.021Z,88.23
2016-12-11T07:42:05.801Z,88.6
2016-12-11T07:43:15.576Z,88.32
2016-12-11T07:44:24.774Z,88.42
2016-12-11T07:45:34.656Z,88.32
2016-12-11T07:46:44.420Z,88.32
2016-12-11T07:47:53.904Z,88.23
2016-12-11T07:49:03.681Z,88.32
2016-12-11T07:50:13.462Z,88.32
2016-12-11T07:51:23.267Z,88.99
2016-12-11T07:52:33.052Z,88.79
2016-12-11T07:53:42.223Z,89.47
2016-12-11T07:54:52.022Z,89.27
2016-12-11T07:56:01.794Z,88.79
2016-12-11T07:57:11.632Z,89.37
2016-12-11T07:58:21.125Z,89.27
2016-12-11T07:59:30.584Z,89.47
2016-12-11T08:00:40.397Z,89.75
2016-12-11T08:01:50.238Z,89.84
2016-12-11T08:03:00.021Z,88.99
2016-12-11T08:04:09.835Z,89.56
2016-12-11T08:05:19.625Z,89.56
2016-12-11T08:06:29.115Z,89.75
2016-12-11T08:07:39.023Z,89.56
2016-12-11T08:08:48.817Z,89.47
2016-12-11T08:09:58.643Z,89.47
2016-12-11T08:11:08.139Z,89.75
2016-12-11T08:12:17.755Z,88.99
2016-12-11T08:13:26.947Z,89.37
2016-12-11T08:14:36.746Z,89.08
2016-12-11T08:15:46.574Z,88.99
2016-12-11T08:16:56.058Z,88.6
2016-12-11T08:18:05.544Z,88.04
2016-12-11T08:19:15.359Z,87.46
2016-12-11T08:20:25.172Z,86.8
2016-12-11T08:21:34.961Z,86.7
2016-12-11T08:22:44.800Z,86.04
2016-12-11T08:23:54.581Z,85.66
2016-12-11T08:25:04.368Z,85.66
2016-12-11T08:26:14.145Z,85.37
2016-12-11T08:27:23.658Z,84.99
2016-12-11T08:28:33.457Z,84.61
2016-12-11T08:29:43.347Z,84.52
2016-12-11T08:30:52.834Z,84.61
2016-12-11T08:32:02.360Z,83.94
2016-12-11T08:33:11.953Z,83.28
2016-12-11T08:34:21.733Z,82.8
2016-12-11T08:35:31.324Z,82.9
2016-12-11T08:36:40.794Z,82.8
2016-12-11T08:37:50.094Z,82.42
2016-12-11T08:38:59.691Z,82.51
2016-12-11T08:40:09.477Z,81.85
2016-12-11T08:41:18.980Z,81.95
2016-12-11T08:42:28.478Z,82.32
2016-12-11T08:43:37.957Z,82.32
2016-12-11T08:44:47.465Z,81.66
2016-12-11T08:45:57.272Z,81.09
2016-12-11T08:47:06.747Z,80.52
2016-12-11T08:48:16.532Z,80.71
2016-12-11T08:49:25.710Z,80.9
2016-12-11T08:50:35.652Z,80.9
2016-12-11T08:51:45.231Z,80.8
2016-12-11T08:52:55.021Z,80.9
2016-12-11T08:54:04.805Z,81.47
2016-12-11T08:55:14.623Z,81.47
2016-12-11T08:56:24.403Z,80.9
2016-12-11T08:57:34.185Z,81.18
2016-12-11T08:58:43.973Z,81.09
2016-12-11T08:59:53.531Z,80.8
2016-12-11T09:01:34.869Z,78.71
2016-12-11T09:02:44.647Z,79.09
2016-12-11T09:03:54.172Z,78.23
2016-12-11T09:05:03.660Z,78.14
2016-12-11T09:06:13.449Z,78.57
2016-12-11T09:07:22.937Z,78.48
2016-12-11T09:08:32.451Z,78.14
2016-12-11T09:09:41.921Z,77.62
2016-12-11T09:10:51.693Z,76.86
2016-12-11T09:12:01.275Z,76.1
2016-12-11T09:13:10.748Z,76.2
2016-12-11T09:14:20.835Z,76.1
2016-12-11T09:15:30.458Z,75.05
2016-12-11T09:16:40.306Z,75.53
2016-12-11T09:17:50.121Z,75.09
2016-12-11T09:18:59.915Z,74.67
2016-12-11T09:20:09.723Z,74.2
2016-12-11T09:21:19.231Z,73.82
2016-12-11T09:22:28.716Z,73.76
2016-12-11T09:23:38.209Z,74.24
2016-12-11T09:24:47.694Z,73.95
2016-12-11T09:25:56.913Z,73.76
2016-12-11T09:27:06.385Z,74.71
2016-12-11T09:28:16.196Z,74.33
2016-12-11T09:29:25.975Z,74.99
2016-12-11T09:30:35.450Z,75.15
2016-12-11T09:31:44.982Z,75.34
2016-12-11T09:32:53.530Z,75.15
2016-12-11T09:34:03.317Z,75.43
2016-12-11T09:35:13.122Z,74.9
2016-12-11T09:36:22.597Z,74.87
2016-12-11T09:37:32.071Z,75.09
2016-12-11T09:38:41.560Z,75.05
2016-12-11T09:39:51.423Z,74.58
2016-12-11T09:41:00.883Z,74.8
2016-12-11T09:42:10.368Z,75.09
2016-12-11T09:43:20.290Z,75.24
2016-12-11T09:44:30.116Z,75.43
2016-12-11T09:45:39.607Z,75.91
2016-12-11T09:46:49.434Z,76.1
2016-12-11T09:47:59.018Z,76.48
2016-12-11T09:49:08.623Z,76.57
2016-12-11T09:50:18.100Z,76.48
2016-12-11T09:51:27.912Z,77.05
2016-12-11T09:52:37.719Z,77.34
2016-12-11T09:53:47.522Z,77.15
2016-12-11T09:54:56.993Z,77.72
2016-12-11T09:56:06.859Z,77.72
2016-12-11T09:57:16.327Z,77.81
2016-12-11T09:58:26.136Z,78.19
2016-12-11T09:59:35.645Z,78.48
2016-12-11T10:00:45.477Z,78.38
2016-12-11T10:01:54.983Z,78.19
2016-12-11T10:03:04.813Z,78.38
2016-12-11T10:04:14.641Z,78
2016-12-11T10:05:24.537Z,77.81
2016-12-11T10:06:34.342Z,77.81
2016-12-11T10:07:44.205Z,77.91
2016-12-11T10:08:54.067Z,77.24
2016-12-11T10:10:03.848Z,78.1
2016-12-11T10:11:13.692Z,77.81
2016-12-11T10:12:23.485Z,77.91
2016-12-11T10:13:32.965Z,77.81
2016-12-11T10:14:42.560Z,77.91
2016-12-11T10:15:52.029Z,78.1
2016-12-11T10:17:01.526Z,78.1
2016-12-11T10:18:11.343Z,77.81
2016-12-11T10:19:21.129Z,78.1
2016-12-11T10:20:30.609Z,78.1
2016-12-11T10:21:40.192Z,77.62
2016-12-11T10:22:49.971Z,77.62
2016-12-11T10:23:59.462Z,77.53
2016-12-11T10:25:09.405Z,77.72
2016-12-11T10:26:19.222Z,78
2016-12-11T10:27:28.078Z,77.72
2016-12-11T10:28:37.883Z,78.1
2016-12-11T10:29:47.714Z,77.91
2016-12-11T10:30:57.524Z,77.91
2016-12-11T10:32:06.442Z,77.72
2016-12-11T10:33:16.237Z,78.1
2016-12-11T10:34:25.749Z,78
2016-12-11T10:35:35.261Z,77.91
2016-12-11T10:36:44.734Z,77.15
2016-12-11T10:37:53.936Z,76.86
2016-12-11T10:39:03.793Z,76.76
2016-12-11T10:40:13.609Z,77.05
2016-12-11T10:41:23.078Z,76.96
2016-12-11T10:42:32.853Z,76.29
2016-12-11T10:43:42.361Z,76.2
2016-12-11T10:44:52.290Z,76.86
2016-12-11T10:46:02.128Z,76.67
2016-12-11T10:47:11.623Z,76.96
2016-12-11T10:48:21.133Z,76.86
2016-12-11T10:49:30.970Z,76.81
2016-12-11T10:50:40.738Z,76.86
2016-12-11T10:51:50.208Z,77.15
2016-12-11T10:52:59.397Z,77.24
2016-12-11T10:54:08.551Z,77.43
2016-12-11T10:55:18.027Z,77.62
2016-12-11T10:56:27.493Z,78
2016-12-11T10:57:37.419Z,78.19
2016-12-11T10:58:47.233Z,77.85
2016-12-11T10:59:57.015Z,77.37
2016-12-11T11:01:06.494Z,77.28
2016-12-11T11:02:15.968Z,76.81
2016-12-11T11:03:25.761Z,76.52
2016-12-11T11:04:35.563Z,77
2016-12-11T11:05:44.775Z,77
2016-12-11T11:06:54.674Z,76.52
2016-12-11T11:08:04.152Z,76.81
2016-12-11T11:09:14.007Z,76.9
2016-12-11T11:10:23.859Z,77.19
2016-12-11T11:11:34.554Z,77.09
2016-12-11T11:12:46.198Z,78.14
2016-12-11T11:13:55.995Z,78.14
2016-12-11T11:15:05.621Z,78.71
2016-12-11T11:16:15.288Z,78.99
2016-12-11T11:17:24.794Z,79.19
2016-12-11T11:18:34.404Z,79.28
2016-12-11T11:19:44.236Z,79.14
2016-12-11T11:20:53.492Z,79.62
2016-12-11T11:22:03.293Z,79.28
2016-12-11T11:23:13.123Z,79.66
2016-12-11T11:24:22.339Z,79.38
2016-12-11T11:25:32.140Z,79.28
2016-12-11T11:26:41.647Z,79.09
2016-12-11T11:27:50.869Z,79.33
2016-12-11T11:29:00.348Z,79.24
2016-12-11T11:30:10.155Z,79.94
2016-12-11T11:31:19.961Z,79.66
2016-12-11T11:32:29.483Z,80
2016-12-11T11:33:38.994Z,80.04
2016-12-11T11:34:48.185Z,80
2016-12-11T11:35:58.025Z,80.38
2016-12-11T11:37:07.830Z,80.23
2016-12-11T11:38:17.642Z,80.52
2016-12-11T11:39:26.859Z,80.38
2016-12-11T11:40:36.358Z,80.76
2016-12-11T11:41:45.946Z,80.71
2016-12-11T11:42:55.757Z,80.95
2016-12-11T11:44:05.285Z,80.66
2016-12-11T11:45:15.079Z,80.95
2016-12-11T11:46:24.980Z,80.95
2016-12-11T11:47:34.802Z,80.76
2016-12-11T11:48:43.704Z,80.61
2016-12-11T11:49:53.344Z,80.9
2016-12-11T11:51:03.228Z,80.42
2016-12-11T11:52:13.060Z,80.42
2016-12-11T11:53:22.554Z,80.61
2016-12-11T11:54:32.398Z,80.19
2016-12-11T11:55:42.196Z,80.13
2016-12-11T11:56:51.715Z,80
2016-12-11T11:58:01.514Z,79.94
2016-12-11T11:59:11.042Z,80.33
2016-12-11T12:00:21.012Z,79.75
2016-12-11T12:01:30.864Z,80.04
2016-12-11T12:02:40.180Z,80.04
2016-12-11T12:03:50.059Z,79.57
2016-12-11T12:05:00.182Z,79.47
2016-12-11T12:06:11.723Z,79.66
2016-12-11T12:07:23.423Z,79.38
2016-12-11T12:08:36.106Z,79.09
2016-12-11T12:09:49.410Z,79.57
2016-12-11T12:11:01.398Z,79.47
2016-12-11T12:12:14.467Z,79.47
2016-12-11T12:13:26.865Z,80.04
2016-12-11T12:14:39.675Z,80.23
2016-12-11T12:15:52.839Z,79.94
2016-12-11T12:17:05.905Z,80.47
2016-12-11T12:18:19.484Z,79.81
2016-12-11T12:19:32.543Z,80.1
2016-12-11T12:20:45.312Z,79.85
2016-12-11T12:21:58.908Z,80.13
2016-12-11T12:23:11.256Z,79.19
2016-12-11T12:24:21.083Z,79.57
2016-12-11T12:25:30.293Z,78.8
2016-12-11T12:26:39.818Z,78.61
2016-12-11T12:27:49.677Z,78.61
2016-12-11T12:28:59.479Z,78.42
2016-12-11T12:30:09.022Z,78.61
2016-12-11T12:31:18.259Z,78.42
2016-12-11T12:32:28.188Z,78.71
2016-12-11T12:33:37.391Z,78.52
2016-12-11T12:34:46.923Z,78.33
2016-12-11T12:35:56.457Z,78.42
2016-12-11T12:37:06.039Z,77.76
2016-12-11T12:38:47.480Z,78.33
2016-12-11T12:39:57.421Z,78.14
2016-12-11T12:41:07.358Z,78.04
2016-12-11T12:42:17.257Z,78.23
2016-12-11T12:43:26.884Z,78.14
2016-12-11T12:44:36.193Z,78.42
2016-12-11T12:45:46.113Z,78.14
2016-12-11T12:46:56.007Z,78.14
2016-12-11T12:48:05.903Z,78.04
2016-12-11T12:49:15.596Z,78.14
2016-12-11T12:50:25.490Z,78.23
2016-12-11T12:51:35.093Z,78.14
2016-12-11T12:52:44.955Z,77.95
2016-12-11T12:53:54.641Z,78.14
2016-12-11T12:55:03.909Z,77.95
2016-12-11T12:56:13.823Z,78.14
2016-12-11T12:57:23.701Z,77.37
2016-12-11T12:58:33.262Z,77.28
2016-12-11T12:59:43.134Z,77.37
2016-12-11T13:00:53.219Z,77.47
2016-12-11T13:02:03.143Z,77.66
2016-12-11T13:03:12.814Z,77.66
2016-12-11T13:04:22.800Z,77.19
2016-12-11T13:05:32.694Z,77.37
2016-12-11T13:06:42.541Z,76.9
2016-12-11T13:07:52.142Z,77
2016-12-11T13:09:01.768Z,76.52
2016-12-11T13:10:11.685Z,76.81
2016-12-11T13:11:21.694Z,76.81
2016-12-11T13:12:31.793Z,76.9
2016-12-11T13:13:41.034Z,76.9
2016-12-11T13:14:50.917Z,76.9
2016-12-11T13:16:00.137Z,77
2016-12-11T13:17:10.098Z,77
2016-12-11T13:18:20.068Z,76.71
2016-12-11T13:19:29.704Z,76.9
2016-12-11T13:20:39.609Z,76.9
2016-12-11T13:21:49.191Z,76.81
2016-12-11T13:22:59.056Z,76.81
2016-12-11T13:24:08.718Z,76.81
2016-12-11T13:25:18.265Z,76.42
2016-12-11T13:26:28.296Z,75.85
2016-12-11T13:27:38.303Z,75.85
2016-12-11T13:28:48.156Z,76.04
2016-12-11T13:29:58.126Z,75.85
2016-12-11T13:31:08.262Z,76.23
2016-12-11T13:32:18.208Z,76.23
2016-12-11T13:33:27.860Z,76.14
2016-12-11T13:34:37.795Z,76.04
2016-12-11T13:35:47.802Z,75.67
2016-12-11T13:36:57.375Z,75.85
2016-12-11T13:38:07.002Z,76.23
2016-12-11T13:39:16.665Z,76.14
2016-12-11T13:40:26.678Z,76.23
2016-12-11T13:41:36.792Z,76.04
2016-12-11T13:42:46.743Z,75.95
2016-12-11T13:43:56.469Z,75.95
2016-12-11T13:45:06.440Z,76.04
2016-12-11T13:46:16.087Z,76.04
2016-12-11T13:47:25.846Z,76.04
2016-12-11T13:48:35.864Z,76.14
2016-12-11T13:49:45.485Z,76.04
2016-12-11T13:50:55.467Z,76.14
2016-12-11T13:52:05.213Z,76.23
2016-12-11T13:53:14.844Z,75.85
2016-12-11T13:54:24.481Z,76.04
2016-12-11T13:55:34.429Z,75.95
2016-12-11T13:56:44.341Z,75.67
2016-12-11T13:57:53.964Z,75.85
2016-12-11T13:59:03.967Z,75.95
2016-12-11T14:00:13.903Z,75.76
2016-12-11T14:01:23.848Z,76.04
2016-12-11T14:02:33.836Z,76.33
2016-12-11T14:03:43.779Z,76.04
2016-12-11T14:04:53.439Z,76.23
2016-12-11T14:06:03.206Z,76.04
2016-12-11T14:07:12.796Z,76.33
2016-12-11T14:08:22.462Z,76.04
2016-12-11T14:09:32.475Z,76.04
2016-12-11T14:10:42.684Z,76.14
2016-12-11T14:11:52.503Z,76.33
2016-12-11T14:13:02.418Z,75.85
2016-12-11T14:14:12.007Z,76.14
2016-12-11T14:15:22.029Z,76.04
2016-12-11T14:16:31.814Z,75.85
2016-12-11T14:17:41.830Z,76.14
2016-12-11T14:18:51.800Z,76.04
2016-12-11T14:20:01.081Z,76.71
2016-12-11T14:21:10.717Z,76.71
2016-12-11T14:22:20.381Z,76.61
2016-12-11T14:23:29.815Z,76.42
2016-12-11T14:24:39.774Z,75.76
2016-12-11T14:25:49.095Z,76.14
2016-12-11T14:26:59.083Z,76.33
2016-12-11T14:28:08.764Z,76.23
2016-12-11T14:29:18.649Z,76.71
2016-12-11T14:30:28.385Z,76.52
2016-12-11T14:31:38.334Z,76.14
2016-12-11T14:32:48.339Z,76.23
2016-12-11T14:33:58.306Z,75.95
2016-12-11T14:35:08.430Z,75.85
2016-12-11T14:36:18.347Z,75.95
2016-12-11T14:37:28.274Z,75.67
2016-12-11T14:38:38.197Z,76.04
2016-12-11T14:39:47.558Z,76.14
2016-12-11T14:40:57.442Z,76.14
2016-12-11T14:42:07.408Z,75.85
2016-12-11T14:43:17.006Z,75.85
2016-12-11T14:44:26.996Z,75.85
2016-12-11T14:45:36.581Z,76.04
2016-12-11T14:46:46.199Z,76.14
2016-12-11T14:47:56.114Z,75.57
2016-12-11T14:49:06.009Z,75.57
2016-12-11T14:50:15.578Z,75.67
2016-12-11T14:51:25.229Z,75.95
2016-12-11T14:52:35.269Z,75.95
2016-12-11T14:54:18.253Z,76.04
2016-12-11T14:55:27.827Z,75.76
2016-12-11T14:56:37.819Z,75.76
2016-12-11T14:57:47.720Z,75.76
2016-12-11T14:58:57.330Z,76.14
2016-12-11T15:00:07.242Z,76.04
2016-12-11T15:01:16.851Z,75.95
2016-12-11T15:02:26.799Z,76.42
2016-12-11T15:03:36.747Z,76.04
2016-12-11T15:04:46.344Z,76.14